Bessemer, AL (35023)

1:37 AM CDT on July 26, 2016 (GMT -0500)
Pinewood | | Change Station

Elev 600 ft 33.47 °N, 87.02 °W | Updated 4 seconds ago

Clear
Clear
75.0 °F
Feels Like 73 °F
N
0.0
Wind Variable Wind from SW
Gusts 0.0 mph

Today
High -- | Low -- °F
--% Chance of Precip.
Yesterday
High -- | Low -- °F
Precip. -- in
Pressure 30.04 in
Visibility 10.0 miles
Clouds Clear
Heat Index 73 °F
Dew Point 74 °F
Humidity 97%
Rainfall 0.00 in
Snow Depth Not available.
5:57 AM 7:52 PM
Waning Gibbous, 58% visible
METAR KBHM 260553Z 00000KT 10SM CLR 24/23 A3006 RMK AO2 SLP170 60001 T02440228 10333 20244 403500233 58001
Pressure 30.04 in
Visibility 10.0 miles
Clouds Clear
Heat Index 73 °F
Dew Point 74 °F
Humidity 97%
Rainfall 0.00 in
Snow Depth Not available.
5:57 AM 7:52 PM
Waning Gibbous, 58% visible
METAR KBHM 260553Z 00000KT 10SM CLR 24/23 A3006 RMK AO2 SLP170 60001 T02440228 10333 20244 403500233 58001

10-Day Weather Forecast

Almanac

Astronomy

Jul. 26, 2016 Rise Set
Actual Time
Civil Twilight
Nautical Twilight
Astronomical Twilight
Moon
Length of Visible Light
Length of Day
Tomorrow will be .
, % of the Moon is Illuminated

Today's Extremes

State Highs State Lows

Community

WunderPhotos

Upload Photos

1,927,551 photos uploaded!

WunderBlog® & News

Nearby

Air Quality

  Air Quality AQ Index Pollutant
Not available.

Snow Depth

Station Depth Elevation

Earthquake Activity

City Distance Mag. Time & Date
Minimum magnitude displayed is 2.5.

Coastal Water Temperatures

Place Temperature

Stations

Nearby Weather Stations

Station Location Temp. Windchill Dew Point Humidity Wind Precip. Elev Updated Type
                   

Watches & Warnings

There are currently no watches in effect.